Time;durP1;ratioP1;P1;durP2;ratioP2;P2;SDS_P1;SDS_P2;PMS_P1;PMS_P2;Temp;Humidity;BMP_temperature;BMP_pressure;BME280_temperature;BME280_humidity;BME280_pressure;Samples;Min_cycle;Max_cycle;Signal;HPM_P1;HPM_P2
2023/04/23 00:01:58;;;;;;;28.48;18.92;;;;;;;8.77;90.20;100706.41;4995356;28;20042;-75
2023/04/23 00:04:25;;;;;;;25.60;17.80;;;;;;;8.77;90.10;100697.75;4981133;28;20233;-75
2023/04/23 00:06:51;;;;;;;27.30;19.00;;;;;;;8.76;90.17;100691.66;4997290;28;20038;-75
2023/04/23 00:09:17;;;;;;;27.02;19.10;;;;;;;8.77;90.07;100692.53;5000613;28;20034;-75
2023/04/23 00:11:43;;;;;;;25.55;19.15;;;;;;;8.76;90.00;100688.19;5000091;28;20349;-75
2023/04/23 00:14:10;;;;;;;28.15;20.05;;;;;;;8.76;90.23;100693.41;4999277;28;20034;-75
2023/04/23 00:16:36;;;;;;;26.40;18.10;;;;;;;8.76;90.20;100685.59;4999615;28;20068;-75
2023/04/23 00:19:01;;;;;;;28.55;18.90;;;;;;;8.77;90.10;100687.31;5000575;28;20306;-75
2023/04/23 00:21:27;;;;;;;25.55;17.90;;;;;;;8.76;90.26;100682.97;5000295;28;20104;-75
2023/04/23 00:23:52;;;;;;;25.35;18.20;;;;;;;8.75;90.10;100676.03;4999907;28;20290;-75
2023/04/23 00:26:18;;;;;;;24.48;17.90;;;;;;;8.75;90.45;100676.03;5000019;28;20105;-75
2023/04/23 00:28:43;;;;;;;24.63;17.48;;;;;;;8.76;90.24;100675.97;4999751;28;20424;-75
2023/04/23 00:31:08;;;;;;;26.33;18.35;;;;;;;8.76;90.59;100678.59;4998675;28;20227;-75
2023/04/23 00:33:34;;;;;;;26.38;17.52;;;;;;;8.77;90.48;100675.09;4999515;28;20061;-75
2023/04/23 00:35:59;;;;;;;23.75;17.48;;;;;;;8.77;90.40;100666.41;4999802;28;20049;-75
2023/04/23 00:38:25;;;;;;;26.75;17.33;;;;;;;8.77;90.55;100664.66;5000088;28;20242;-75
2023/04/23 00:40:51;;;;;;;26.42;18.42;;;;;;;8.77;90.34;100662.03;4999011;28;20376;-75
2023/04/23 00:43:18;;;;;;;25.52;18.67;;;;;;;8.77;90.38;100659.41;4999890;28;20049;-75
2023/04/23 00:45:43;;;;;;;32.60;21.50;;;;;;;8.76;90.55;100651.63;4999401;28;20281;-75
2023/04/23 00:48:10;;;;;;;30.33;20.08;;;;;;;8.74;90.84;100646.47;4998570;28;20046;-75
2023/04/23 00:50:36;;;;;;;27.95;19.52;;;;;;;8.75;91.20;100648.19;4999083;28;20052;-75
2023/04/23 00:53:01;;;;;;;28.75;19.50;;;;;;;8.75;91.08;100647.31;4999570;28;20049;-75
2023/04/23 00:55:27;;;;;;;27.52;19.50;;;;;;;8.76;90.94;100646.41;4999203;28;20297;-75
2023/04/23 00:57:53;;;;;;;25.73;19.23;;;;;;;8.77;91.03;100645.53;4997850;28;20042;-75
2023/04/23 01:02:48;;;;;;;27.90;19.15;;;;;;;8.77;91.30;100648.97;4995247;28;20241;-75
2023/04/23 01:05:16;;;;;;;26.98;19.08;;;;;;;8.77;91.00;100640.31;4981775;28;20030;-75
2023/04/23 01:07:43;;;;;;;27.27;18.73;;;;;;;8.77;91.04;100643.75;4998292;28;20088;-75
2023/04/23 01:10:09;;;;;;;25.40;18.25;;;;;;;8.77;91.16;100635.91;4999241;28;20109;-75
2023/04/23 01:12:35;;;;;;;28.13;18.38;;;;;;;8.78;91.54;100632.38;4998415;28;20257;-75
2023/04/23 01:15:01;;;;;;;24.90;18.25;;;;;;;8.79;91.36;100641.09;4998607;28;20045;-75
2023/04/23 01:17:27;;;;;;;27.55;18.77;;;;;;;8.79;91.24;100625.44;4999152;28;20070;-75
2023/04/23 01:19:52;;;;;;;29.48;19.27;;;;;;;8.79;91.33;100635.88;4998831;28;20371;-75
2023/04/23 01:22:18;;;;;;;26.92;18.70;;;;;;;8.78;91.55;100627.16;4999363;28;20042;-75
2023/04/23 01:24:44;;;;;;;25.35;17.98;;;;;;;8.79;91.22;100621.03;4998209;28;20069;-75
2023/04/23 01:27:10;;;;;;;27.42;19.10;;;;;;;8.78;91.40;100621.94;4998899;28;20230;-75
2023/04/23 01:29:37;;;;;;;25.27;17.63;;;;;;;8.79;91.48;100618.44;4998988;28;20358;-75
2023/04/23 01:32:03;;;;;;;30.75;20.95;;;;;;;8.80;91.51;100617.53;4999030;28;20042;-75
2023/04/23 01:34:30;;;;;;;28.40;19.85;;;;;;;8.80;91.82;100617.53;4998167;28;20093;-75
2023/04/23 01:36:56;;;;;;;25.13;18.50;;;;;;;8.81;91.73;100616.63;4999006;28;20034;-75
2023/04/23 01:39:22;;;;;;;27.50;18.95;;;;;;;8.82;91.65;100612.25;4998694;28;20029;-75
2023/04/23 01:41:47;;;;;;;28.73;18.77;;;;;;;8.82;91.90;100607.88;4996534;28;20203;-75
2023/04/23 01:44:13;;;;;;;21.80;16.67;;;;;;;8.82;91.89;100617.47;4996258;28;20088;-75
2023/04/23 01:46:38;;;;;;;23.33;16.52;;;;;;;8.81;92.25;100616.63;4998521;28;20345;-75
2023/04/23 01:49:04;;;;;;;26.30;18.33;;;;;;;8.84;92.21;100621.72;4998559;28;20222;-75
2023/04/23 01:51:29;;;;;;;27.80;18.85;;;;;;;8.83;92.34;100621.78;4998607;28;20042;-75
2023/04/23 01:53:55;;;;;;;23.98;17.38;;;;;;;8.85;92.58;100612.13;4998276;28;20076;-75
2023/04/23 01:56:24;;;;;;;23.10;17.00;;;;;;;8.84;92.76;100613.91;4998611;28;20042;-75
2023/04/23 01:58:50;;;;;;;24.38;17.27;;;;;;;8.84;92.84;100619.13;4992839;28;20034;-75
2023/04/23 02:01:16;;;;;;;26.67;18.17;;;;;;;8.87;92.68;100614.69;4984688;28;20045;-75
2023/04/23 02:03:41;;;;;;;21.30;16.50;;;;;;;8.87;92.94;100612.09;4997480;28;20046;-75
2023/04/23 02:06:07;;;;;;;24.15;18.65;;;;;;;8.86;92.87;100605.13;4998170;28;20234;-75
2023/04/23 02:08:32;;;;;;;23.88;16.38;;;;;;;8.88;92.96;100605.94;4997970;28;20105;-75
2023/04/23 02:10:58;;;;;;;22.13;16.80;;;;;;;8.87;92.99;100605.09;4998637;28;20071;-75
2023/04/23 02:13:23;;;;;;;20.52;15.35;;;;;;;8.88;92.90;100598.97;4997986;28;20049;-75
2023/04/23 02:15:48;;;;;;;21.77;15.15;;;;;;;8.88;93.17;100592.88;4995955;28;20045;-75
2023/04/23 02:18:14;;;;;;;19.98;15.07;;;;;;;8.87;93.31;100594.66;4998253;28;20126;-75
2023/04/23 02:20:40;;;;;;;19.88;15.02;;;;;;;8.89;93.19;100586.75;4997701;28;20045;-75
2023/04/23 02:23:08;;;;;;;27.02;18.90;;;;;;;8.90;93.58;100596.31;4998079;28;20030;-75
2023/04/23 02:25:38;;;;;;;26.42;17.98;;;;;;;8.90;93.84;100591.09;4997427;28;20050;-75
2023/04/23 02:28:06;;;;;;;23.05;16.42;;;;;;;8.90;93.96;100596.31;4998684;28;20084;-75
2023/04/23 02:30:32;;;;;;;23.75;16.75;;;;;;;8.91;94.20;100600.59;4998124;28;20062;-75
2023/04/23 02:32:57;;;;;;;26.13;17.88;;;;;;;8.90;94.40;100602.38;4997999;28;20168;-75
2023/04/23 02:35:23;;;;;;;25.40;17.73;;;;;;;8.89;94.24;100605.88;4997442;28;20042;-75
2023/04/23 02:37:48;;;;;;;23.58;17.15;;;;;;;8.91;94.83;100609.28;4998006;28;20042;-75
2023/04/23 02:40:14;;;;;;;21.25;15.13;;;;;;;8.91;94.79;100604.06;4997639;28;20042;-75
2023/04/23 02:42:39;;;;;;;22.73;17.25;;;;;;;8.91;94.60;100608.44;4997992;28;20245;-75
2023/04/23 02:45:06;;;;;;;26.70;18.75;;;;;;;8.91;95.26;100606.66;4997347;28;20109;-75
2023/04/23 02:47:31;;;;;;;32.60;22.10;;;;;;;8.91;95.39;100605.81;4998144;28;20046;-75
2023/04/23 02:49:57;;;;;;;31.52;19.98;;;;;;;8.91;95.39;100600.59;4996510;28;20041;-75
2023/04/23 02:52:23;;;;;;;25.75;18.73;;;;;;;8.91;95.82;100600.59;4997744;28;20050;-75
2023/04/23 02:54:48;;;;;;;28.27;19.77;;;;;;;8.90;95.88;100602.38;4997345;28;20321;-75
2023/04/23 02:57:15;;;;;;;27.30;18.35;;;;;;;8.89;96.61;100589.38;4997834;28;20065;-76
2023/04/23 02:59:40;;;;;;;27.27;18.13;;;;;;;8.89;96.71;100599.81;4997505;28;20070;-76
2023/04/23 03:02:06;;;;;;;24.30;16.92;;;;;;;8.89;96.59;100591.97;4997667;28;20360;-76
2023/04/23 03:04:32;;;;;;;26.55;18.05;;;;;;;8.89;96.78;100589.38;4979505;28;20044;-76
2023/04/23 03:06:57;;;;;;;22.55;15.55;;;;;;;8.89;96.63;100586.75;4991833;28;20041;-76
2023/04/23 03:09:23;;;;;;;25.75;18.52;;;;;;;8.89;96.49;100584.13;4992024;28;20049;-76
2023/04/23 03:11:48;;;;;;;22.58;16.63;;;;;;;8.88;96.64;100578.06;4997166;28;20065;-76
2023/04/23 03:14:13;;;;;;;20.77;15.90;;;;;;;8.89;96.78;100582.38;4996953;28;20050;-76
2023/04/23 03:16:39;;;;;;;20.13;14.50;;;;;;;8.90;96.44;100575.41;4997144;28;20034;-76
2023/04/23 03:19:04;;;;;;;19.08;14.73;;;;;;;8.91;96.51;100582.31;4996196;28;20046;-76
2023/04/23 03:21:30;;;;;;;29.25;21.10;;;;;;;8.91;96.28;100577.94;4996950;28;20053;-76
2023/04/23 03:23:55;;;;;;;24.65;18.30;;;;;;;8.91;96.59;100572.72;4997117;28;20124;-76
2023/04/23 03:26:21;;;;;;;20.50;16.10;;;;;;;8.93;96.60;100580.50;4996824;28;20038;-76
2023/04/23 03:28:46;;;;;;;21.83;17.75;;;;;;;8.93;96.61;100576.16;4995728;28;20357;-76
2023/04/23 03:31:11;;;;;;;20.60;15.25;;;;;;;8.94;96.48;100584.81;4997136;28;20133;-76
2023/04/23 03:33:37;;;;;;;28.10;20.27;;;;;;;8.93;96.82;100581.38;4996447;28;20050;-76
2023/04/23 03:36:02;;;;;;;22.25;17.00;;;;;;;8.95;96.75;100581.28;4998271;28;20389;-76
2023/04/23 03:38:28;;;;;;;22.10;16.90;;;;;;;8.94;97.23;100572.59;5000228;28;20081;-76
2023/04/23 03:40:54;;;;;;;27.58;19.08;;;;;;;8.96;96.86;100572.56;5000222;28;20238;-76
2023/04/23 03:43:19;;;;;;;21.45;16.10;;;;;;;8.95;96.95;100566.50;5000123;28;20080;-76
2023/04/23 03:45:44;;;;;;;20.20;15.98;;;;;;;8.96;96.86;100560.34;5000222;28;20065;-76
2023/04/23 03:48:10;;;;;;;25.05;18.52;;;;;;;8.96;97.19;100565.56;5000641;28;20042;-76
2023/04/23 03:50:39;;;;;;;17.73;14.38;;;;;;;8.97;96.92;100567.28;5000113;28;20050;-76
2023/04/23 03:53:04;;;;;;;22.10;15.65;;;;;;;8.98;97.08;100562.91;5000751;28;20261;-76
2023/04/23 03:55:30;;;;;;;20.25;15.02;;;;;;;8.99;96.85;100569.84;4999881;28;20478;-76
2023/04/23 03:57:55;;;;;;;18.15;15.02;;;;;;;9.00;96.98;100584.59;5000742;28;20030;-76
2023/04/23 04:00:21;;;;;;;17.20;14.35;;;;;;;9.00;97.05;100574.13;5000384;28;20038;-76
2023/04/23 04:02:46;;;;;;;16.17;13.73;;;;;;;9.00;96.93;100588.06;5000373;28;20237;-76
2023/04/23 04:05:12;;;;;;;18.80;14.43;;;;;;;9.00;97.12;100577.63;4999563;28;20038;-76
2023/04/23 04:07:37;;;;;;;22.63;15.95;;;;;;;9.01;97.11;100571.47;4998852;28;20030;-76
2023/04/23 04:10:04;;;;;;;20.83;15.75;;;;;;;9.01;97.18;100574.06;5000260;28;20217;-76
2023/04/23 04:12:30;;;;;;;21.20;16.95;;;;;;;9.01;97.40;100584.53;4993453;28;20043;-76
2023/04/23 04:14:55;;;;;;;23.65;17.15;;;;;;;9.02;97.70;100577.53;4980559;28;20043;-76
2023/04/23 04:17:21;;;;;;;24.30;17.80;;;;;;;9.02;97.86;100572.31;4999793;28;20279;-76
2023/04/23 04:19:46;;;;;;;21.42;15.02;;;;;;;9.02;98.07;100573.19;4998832;28;20042;-76
2023/04/23 04:22:12;;;;;;;22.13;15.82;;;;;;;9.02;97.84;100572.31;4998995;28;20053;-76
2023/04/23 04:24:37;;;;;;;21.33;15.98;;;;;;;9.02;97.76;100569.69;5000002;28;20057;-76
2023/04/23 04:27:04;;;;;;;19.10;15.13;;;;;;;9.03;97.73;100571.41;4998286;28;20042;-76
2023/04/23 04:29:30;;;;;;;18.95;14.88;;;;;;;9.05;97.79;100573.97;4998677;28;20383;-76
2023/04/23 04:31:56;;;;;;;15.52;13.30;;;;;;;9.05;97.70;100566.97;4999466;28;20125;-76
2023/04/23 04:34:22;;;;;;;18.00;14.77;;;;;;;9.05;97.36;100561.75;4999688;28;20353;-76
2023/04/23 04:36:47;;;;;;;18.73;14.10;;;;;;;9.06;97.25;100560.84;4999975;28;20107;-76
2023/04/23 04:39:13;;;;;;;15.93;13.02;;;;;;;9.06;97.12;100562.59;4999766;28;20091;-76
2023/04/23 04:41:40;;;;;;;15.13;11.73;;;;;;;9.06;97.13;100563.47;4999489;28;20046;-76
2023/04/23 04:44:07;;;;;;;15.93;13.05;;;;;;;9.06;96.92;100571.31;4999469;28;20044;-76
2023/04/23 04:46:33;;;;;;;14.93;12.48;;;;;;;9.07;96.89;100574.75;4998964;28;20034;-76
2023/04/23 04:48:59;;;;;;;15.25;13.55;;;;;;;9.06;96.77;100573.91;4999096;28;20081;-76
2023/04/23 04:51:25;;;;;;;16.73;12.63;;;;;;;9.06;96.60;100571.31;4999676;28;20041;-76
2023/04/23 04:53:51;;;;;;;15.02;12.82;;;;;;;9.07;96.55;100574.75;4999377;28;20038;-76
2023/04/23 04:56:17;;;;;;;12.77;11.27;;;;;;;9.06;96.36;100571.31;4999199;28;20045;-76
2023/04/23 04:58:42;;;;;;;16.40;13.25;;;;;;;9.06;96.41;100570.44;4998017;28;20218;-76
2023/04/23 05:01:08;;;;;;;15.85;12.43;;;;;;;9.07;95.83;100579.97;4999207;28;20045;-76
2023/04/23 05:03:34;;;;;;;15.07;12.35;;;;;;;9.06;95.98;100579.16;4998996;28;20050;-76
2023/04/23 05:06:00;;;;;;;16.77;12.80;;;;;;;9.07;95.96;100582.59;4999213;28;20037;-76
2023/04/23 05:08:25;;;;;;;14.32;11.65;;;;;;;9.07;95.97;100591.28;4999276;28;20384;-76
2023/04/23 05:10:52;;;;;;;16.35;13.10;;;;;;;9.09;95.86;100586.00;4998619;28;20038;-76
2023/04/23 05:13:18;;;;;;;12.98;11.60;;;;;;;9.09;95.90;100581.63;4999086;28;20273;-76
2023/04/23 05:15:45;;;;;;;13.35;11.70;;;;;;;9.08;96.01;100579.94;4998828;28;20045;-76
2023/04/23 05:18:10;;;;;;;15.45;12.45;;;;;;;9.09;95.44;100573.78;4999199;28;20038;-76
2023/04/23 05:20:37;;;;;;;11.98;10.15;;;;;;;9.09;95.63;100576.38;4998567;28;20125;-76
2023/04/23 05:23:02;;;;;;;13.27;11.88;;;;;;;9.10;95.62;100577.25;4999339;28;20068;-76
2023/04/23 05:25:29;;;;;;;11.85;10.65;;;;;;;9.09;95.15;100568.56;4998734;28;20317;-76
2023/04/23 05:27:55;;;;;;;15.15;12.93;;;;;;;9.09;95.29;100575.53;4998769;28;20057;-76
2023/04/23 05:30:20;;;;;;;14.55;12.10;;;;;;;9.09;95.35;100571.16;4998739;28;20097;-76
2023/04/23 05:32:45;;;;;;;13.18;11.60;;;;;;;9.09;95.43;100573.78;4998576;28;20058;-76
2023/04/23 05:35:11;;;;;;;15.60;11.88;;;;;;;9.10;95.44;100575.50;4997011;28;20046;-76
2023/04/23 05:37:36;;;;;;;12.88;11.50;;;;;;;9.11;95.46;100574.56;4998517;28;20046;-76
2023/04/23 05:40:03;;;;;;;13.02;11.60;;;;;;;9.13;94.99;100579.72;4997619;28;20042;-76
2023/04/23 05:42:29;;;;;;;12.60;10.88;;;;;;;9.12;94.94;100565.00;4999009;28;20083;-77
2023/04/23 05:44:54;;;;;;;14.88;12.02;;;;;;;9.14;95.14;100571.00;4997483;28;21466;-76
2023/04/23 05:47:20;;;;;;;12.95;11.35;;;;;;;9.14;94.84;100571.00;4992502;28;20038;-77
2023/04/23 05:49:45;;;;;;;15.10;13.30;;;;;;;9.15;95.03;100570.06;4984714;28;20236;-77
2023/04/23 05:52:11;;;;;;;15.38;12.77;;;;;;;9.16;95.06;100574.41;4994551;28;20042;-77
2023/04/23 05:54:36;;;;;;;15.00;12.52;;;;;;;9.17;94.80;100570.88;4996107;28;20034;-77
2023/04/23 05:57:03;;;;;;;14.60;12.15;;;;;;;9.17;94.96;100574.34;4996223;28;20249;-77
2023/04/23 05:59:28;;;;;;;17.88;14.27;;;;;;;9.19;94.82;100563.84;4997037;28;20071;-77
2023/04/23 06:01:54;;;;;;;17.30;13.80;;;;;;;9.21;95.40;100564.63;4994517;28;20057;-77
2023/04/23 06:04:19;;;;;;;21.50;15.38;;;;;;;9.22;95.57;100564.56;4997199;28;20046;-77
2023/04/23 06:06:45;;;;;;;22.45;15.85;;;;;;;9.23;96.77;100578.47;4996979;28;20117;-77
2023/04/23 06:09:11;;;;;;;20.38;15.85;;;;;;;9.25;97.35;100565.34;4997529;28;20051;-77
2023/04/23 06:11:36;;;;;;;21.05;15.32;;;;;;;9.26;97.47;100564.44;4996696;28;20046;-76
2023/04/23 06:14:02;;;;;;;21.38;15.95;;;;;;;9.28;98.01;100565.22;4997366;28;20206;-77
2023/04/23 06:16:28;;;;;;;21.25;16.02;;;;;;;9.30;98.30;100560.81;4997048;28;20038;-77
2023/04/23 06:18:55;;;;;;;18.58;14.15;;;;;;;9.31;98.41;100565.94;4996997;28;21150;-77
2023/04/23 06:21:23;;;;;;;21.10;14.15;;;;;;;9.32;98.70;100551.97;4996643;28;20034;-76
2023/04/23 06:23:50;;;;;;;18.67;14.48;;;;;;;9.34;99.52;100551.91;4997028;28;20045;-77
2023/04/23 06:26:15;;;;;;;21.45;14.73;;;;;;;9.36;99.74;100550.09;4994493;28;20068;-77
2023/04/23 06:28:41;;;;;;;20.73;14.02;;;;;;;9.37;99.91;100550.03;4996741;28;20065;-77
2023/04/23 06:31:07;;;;;;;24.35;14.35;;;;;;;9.40;100.00;100547.31;4988097;28;20038;-77
2023/04/23 06:33:35;;;;;;;20.85;14.43;;;;;;;9.43;100.00;100545.47;4993219;28;20300;-77
2023/04/23 06:36:00;;;;;;;18.52;13.32;;;;;;;9.46;100.00;100540.09;4996377;28;20037;-77
2023/04/23 06:38:25;;;;;;;23.67;14.23;;;;;;;9.48;100.00;100540.88;4994853;28;20297;-77
2023/04/23 06:40:51;;;;;;;19.80;13.88;;;;;;;9.52;100.00;100545.94;4995859;28;20046;-77
2023/04/23 06:43:16;;;;;;;18.00;12.88;;;;;;;9.54;100.00;100535.44;4989208;28;20183;-76
2023/04/23 06:45:42;;;;;;;22.20;14.13;;;;;;;9.57;100.00;100533.53;4994098;28;20313;-77
2023/04/23 06:48:07;;;;;;;20.83;12.80;;;;;;;9.60;100.00;100536.03;4993785;28;20042;-77
2023/04/23 06:50:32;;;;;;;17.48;13.05;;;;;;;9.64;100.00;100536.75;4988627;28;20042;-77
2023/04/23 06:52:58;;;;;;;22.08;13.93;;;;;;;9.66;100.00;100531.44;4989733;28;20081;-77
2023/04/23 06:55:25;;;;;;;18.23;13.20;;;;;;;9.71;100.00;100532.94;4988766;28;20170;-77
2023/04/23 06:57:51;;;;;;;19.60;12.40;;;;;;;9.75;100.00;100534.53;4987396;28;20277;-77
2023/04/23 07:00:18;;;;;;;22.10;12.52;;;;;;;9.80;100.00;100540.44;4989374;28;20339;-77
2023/04/23 07:02:43;;;;;;;18.23;12.65;;;;;;;9.84;100.00;100545.50;4994666;28;20034;-77
2023/04/23 07:05:09;;;;;;;18.52;12.95;;;;;;;9.88;100.00;100541.88;4995299;28;20270;-77
2023/04/23 07:07:36;;;;;;;18.50;12.13;;;;;;;9.91;100.00;100536.50;4994260;28;20043;-77
2023/04/23 07:10:02;;;;;;;16.83;11.80;;;;;;;9.94;100.00;100545.06;4994275;28;20038;-77
2023/04/23 07:12:28;;;;;;;19.10;11.93;;;;;;;9.98;100.00;100537.94;4998811;28;20041;-77
2023/04/23 07:14:53;;;;;;;20.60;11.98;;;;;;;10.02;100.00;100539.50;4998897;28;20042;-77
2023/04/23 07:17:19;;;;;;;17.70;11.30;;;;;;;10.07;100.00;100531.47;4999750;28;20341;-77
2023/04/23 07:19:44;;;;;;;16.90;10.95;;;;;;;10.12;100.00;100530.34;4999164;28;20062;-77
2023/04/23 07:22:10;;;;;;;14.98;10.43;;;;;;;10.17;100.00;100535.38;4993368;28;20230;-77
2023/04/23 07:24:35;;;;;;;18.00;10.00;;;;;;;10.22;100.00;100524.69;4999731;28;20053;-77
2023/04/23 07:27:01;;;;;;;16.42;9.98;;;;;;;10.25;100.00;100522.78;4994831;28;20254;-77
2023/04/23 07:29:27;;;;;;;18.13;10.85;;;;;;;10.29;100.00;100519.13;4996292;28;20061;-77
2023/04/23 07:31:52;;;;;;;17.88;10.50;;;;;;;10.35;100.00;100518.91;4997366;28;20038;-77
2023/04/23 07:34:17;;;;;;;12.85;9.38;;;;;;;10.41;100.00;100520.38;4995239;28;20373;-76
2023/04/23 07:36:43;;;;;;;15.65;8.80;;;;;;;10.47;99.99;100520.09;4997446;28;20038;-76
2023/04/23 07:39:08;;;;;;;15.75;8.75;;;;;;;10.50;99.29;100514.72;4999133;28;20048;-75
2023/04/23 07:41:34;;;;;;;18.38;8.43;;;;;;;10.58;99.50;100519.59;4995363;28;20050;-76
2023/04/23 07:43:59;;;;;;;12.98;7.63;;;;;;;10.64;99.51;100521.09;4999478;28;20041;-76
2023/04/23 07:46:25;;;;;;;12.68;7.13;;;;;;;10.70;99.22;100521.66;4993633;28;20054;-75
2023/04/23 07:48:51;;;;;;;14.40;7.70;;;;;;;10.73;98.50;100521.53;4991015;28;20041;-76
2023/04/23 07:51:17;;;;;;;10.98;7.75;;;;;;;10.81;97.60;100517.72;4995089;28;20152;-76
2023/04/23 07:53:42;;;;;;;16.08;7.38;;;;;;;10.87;97.83;100514.78;4995655;28;20046;-76
2023/04/23 07:56:08;;;;;;;16.00;7.22;;;;;;;10.92;97.69;100510.19;4993361;28;20034;-76
2023/04/23 07:58:34;;;;;;;16.40;7.05;;;;;;;10.96;97.06;100514.34;4991144;28;20066;-75
2023/04/23 08:01:01;;;;;;;15.27;6.03;;;;;;;11.00;96.49;100496.72;4993678;28;20124;-75
2023/04/23 08:03:27;;;;;;;11.88;7.05;;;;;;;11.05;96.09;100492.13;4991162;28;20049;-76
2023/04/23 08:05:53;;;;;;;15.07;6.90;;;;;;;11.10;96.46;100490.97;4990554;28;20043;-76
2023/04/23 08:08:18;;;;;;;12.52;5.78;;;;;;;11.15;96.05;100501.22;4993322;28;20064;-76
2023/04/23 08:10:44;;;;;;;17.35;8.38;;;;;;;11.20;96.46;100493.13;4991159;28;20248;-76
2023/04/23 08:13:10;;;;;;;10.25;6.05;;;;;;;11.23;96.71;100499.06;4989681;28;20038;-76
2023/04/23 08:15:36;;;;;;;10.35;6.50;;;;;;;11.26;95.86;100493.69;4991453;28;20042;-75
2023/04/23 08:18:03;;;;;;;14.10;6.80;;;;;;;11.31;96.56;100494.31;4991504;28;20323;-76
2023/04/23 08:20:28;;;;;;;14.00;6.30;;;;;;;11.36;96.44;100494.09;4991025;28;20048;-76
2023/04/23 08:22:54;;;;;;;14.25;5.97;;;;;;;11.40;96.31;100490.38;4990639;28;20140;-76
2023/04/23 08:25:20;;;;;;;17.80;6.75;;;;;;;11.44;96.09;100496.31;4990762;28;20384;-76
2023/04/23 08:27:45;;;;;;;14.10;5.88;;;;;;;11.46;94.35;100492.72;4991674;28;20102;-76
2023/04/23 08:30:11;;;;;;;10.90;5.72;;;;;;;11.51;94.30;100492.47;4994390;28;20093;-76
2023/04/23 08:32:39;;;;;;;13.85;7.18;;;;;;;11.56;94.86;100492.25;4993621;28;20045;-76
2023/04/23 08:35:05;;;;;;;11.45;6.05;;;;;;;11.61;95.14;100498.13;4995252;28;20061;-76
2023/04/23 08:37:30;;;;;;;9.98;4.88;;;;;;;11.62;93.64;100492.75;4995026;28;20242;-76
2023/04/23 08:39:56;;;;;;;12.45;5.75;;;;;;;11.65;93.47;100500.50;4995334;28;20042;-76
2023/04/23 08:42:37;;;;;;;10.77;6.18;;;;;;;11.69;93.69;100509.91;4995500;28;20300;-76
2023/04/23 08:45:03;;;;;;;12.93;5.53;;;;;;;11.72;93.20;100501.88;4993151;28;20374;-76
2023/04/23 08:47:31;;;;;;;11.55;5.68;;;;;;;11.77;93.46;100511.28;4994272;28;20061;-76
2023/04/23 08:49:58;;;;;;;10.63;5.57;;;;;;;11.81;93.04;100504.97;4996016;28;20039;-76
2023/04/23 08:52:25;;;;;;;15.60;6.22;;;;;;;11.84;92.36;100504.78;4990995;28;20042;-76
2023/04/23 08:54:59;;;;;;;13.75;6.15;;;;;;;11.86;93.44;100511.69;4989699;28;20058;-76
2023/04/23 08:57:25;;;;;;;13.15;5.57;;;;;;;11.87;92.90;100502.88;4993934;28;20034;-76
2023/04/23 08:59:51;;;;;;;7.50;4.80;;;;;;;11.90;92.95;100505.38;4989643;28;20340;-76
2023/04/23 09:02:17;;;;;;;11.38;4.63;;;;;;;11.96;92.89;100501.59;4992088;28;20038;-76
2023/04/23 09:04:44;;;;;;;11.57;5.00;;;;;;;12.01;92.01;100501.34;4992993;28;20042;-76
2023/04/23 09:07:11;;;;;;;8.52;4.93;;;;;;;12.04;91.87;100499.41;4991973;28;20038;-75
2023/04/23 09:09:38;;;;;;;10.27;4.70;;;;;;;12.05;90.52;100492.38;4989785;28;20409;-76
2023/04/23 09:12:05;;;;;;;6.90;3.38;;;;;;;12.07;90.95;100501.88;4993139;28;20050;-76
2023/04/23 09:14:31;;;;;;;13.40;4.65;;;;;;;12.10;91.16;100491.22;4992396;28;20199;-76
2023/04/23 09:16:56;;;;;;;17.40;4.25;;;;;;;12.16;91.93;100487.41;4994727;28;20053;-76
2023/04/23 09:19:26;;;;;;;10.80;4.32;;;;;;;12.22;92.02;100491.50;4994304;28;20053;-76
2023/04/23 09:21:52;;;;;;;13.00;4.70;;;;;;;12.29;92.56;100488.44;4994432;28;20101;-76
2023/04/23 09:24:21;;;;;;;14.07;4.20;;;;;;;12.38;93.04;100488.91;4995140;28;20341;-76
2023/04/23 09:26:48;;;;;;;;;;;;;;;12.42;91.81;100488.63;4995089;28;20230;-76
2023/04/23 09:29:17;;;;;;;12.60;3.92;;;;;;;12.48;92.54;100480.44;4994970;28;19964;-75
2023/04/23 09:31:48;;;;;;;9.73;3.80;;;;;;;12.54;91.13;100481.88;4994979;28;20076;-76
2023/04/23 09:34:18;;;;;;;11.48;4.35;;;;;;;12.64;92.43;100477.84;4992441;28;20042;-76
2023/04/23 09:36:45;;;;;;;8.93;4.57;;;;;;;12.71;90.55;100474.84;4995271;28;20042;-78
2023/04/23 09:39:12;;;;;;;12.15;4.97;;;;;;;12.80;92.24;100480.44;4993046;28;20066;-76
2023/04/23 09:41:38;;;;;;;13.57;5.25;;;;;;;12.87;92.01;100470.44;4993725;28;20034;-76
2023/04/23 09:44:03;;;;;;;11.13;4.50;;;;;;;12.95;91.77;100462.13;4990123;28;20523;-76
2023/04/23 09:46:36;;;;;;;9.43;5.15;;;;;;;13.01;91.59;100469.69;4993048;28;20050;-76
2023/04/23 09:49:09;;;;;;;8.00;4.95;;;;;;;13.08;90.83;100473.66;4992171;28;20049;-76
2023/04/23 09:51:39;;;;;;;7.22;4.30;;;;;;;13.13;91.34;100468.94;4992857;28;20109;-76
2023/04/23 09:54:15;;;;;;;11.63;4.38;;;;;;;13.18;89.87;100463.44;4993494;28;20105;-76
2023/04/23 09:56:41;;;;;;;10.00;4.32;;;;;;;13.21;88.50;100460.66;4991943;28;20292;-76
2023/04/23 09:59:24;;;;;;;8.73;4.28;;;;;;;13.23;88.80;100467.50;4993534;28;20042;-75
2023/04/23 10:01:50;;;;;;;7.13;3.88;;;;;;;13.24;88.76;100458.69;4993653;28;20041;-76
2023/04/23 10:04:20;;;;;;;9.70;4.60;;;;;;;13.30;88.58;100460.13;4993912;28;20049;-76
2023/04/23 10:07:00;;;;;;;13.18;4.88;;;;;;;13.34;88.41;100458.19;4993572;28;20105;-76
2023/04/23 10:09:27;;;;;;;11.32;4.72;;;;;;;13.39;90.00;100461.41;4991461;28;20086;-76
2023/04/23 10:12:01;;;;;;;13.35;5.15;;;;;;;13.43;88.13;100455.00;4988142;28;20034;-76
2023/04/23 10:14:27;;;;;;;9.43;4.00;;;;;;;13.49;87.54;100457.28;4992179;28;20068;-75
2023/04/23 10:17:01;;;;;;;13.65;3.92;;;;;;;13.53;87.04;100455.31;4990493;28;20056;-75
2023/04/23 10:19:28;;;;;;;6.82;3.40;;;;;;;13.58;87.11;100453.25;4992468;28;20046;-75
2023/04/23 10:21:56;;;;;;;8.07;3.17;;;;;;;13.61;85.32;100455.72;4992890;28;20280;-76
2023/04/23 10:24:28;;;;;;;9.23;3.33;;;;;;;13.63;83.71;100445.94;4992964;28;20391;-75
2023/04/23 10:26:59;;;;;;;11.20;3.08;;;;;;;13.65;84.32;100451.97;4991174;28;20301;-75
2023/04/23 10:29:30;;;;;;;11.20;3.47;;;;;;;13.67;84.46;100439.56;4993144;28;20333;-75
2023/04/23 10:31:59;;;;;;;8.23;3.55;;;;;;;13.69;84.57;100434.19;4991250;28;20076;-76
2023/04/23 10:34:26;;;;;;;9.40;3.00;;;;;;;13.71;84.69;100443.69;4991785;28;20045;-75
2023/04/23 10:36:52;;;;;;;8.68;3.50;;;;;;;13.75;84.48;100439.94;4992094;28;20192;-75
2023/04/23 10:39:21;;;;;;;7.80;3.08;;;;;;;13.80;83.56;100426.50;4993703;28;20035;-76
2023/04/23 10:41:47;;;;;;;8.75;2.80;;;;;;;13.84;83.40;100430.63;4993575;28;20356;-75
2023/04/23 10:44:15;;;;;;;8.30;3.15;;;;;;;13.88;83.61;100423.38;4993889;28;20042;-76
2023/04/23 10:46:53;;;;;;;7.43;2.80;;;;;;;13.92;83.07;100417.03;4994974;28;20057;-76
2023/04/23 10:49:18;;;;;;;8.73;2.90;;;;;;;13.96;83.04;100421.97;4994313;28;20211;-76
2023/04/23 10:51:47;;;;;;;8.73;3.15;;;;;;;14.00;82.37;100420.84;4994846;28;20407;-75
2023/04/23 10:54:14;;;;;;;11.75;3.13;;;;;;;14.00;81.05;100415.59;4995741;28;20042;-76
2023/04/23 10:56:40;;;;;;;5.68;2.53;;;;;;;13.99;80.47;100413.91;4996118;28;20248;-76
2023/04/23 10:59:19;;;;;;;6.68;2.92;;;;;;;13.95;79.48;100404.50;4996293;28;20104;-76
2023/04/23 11:01:51;;;;;;;;;;;;;;;13.94;79.88;100407.25;4993235;28;20117;-76
2023/04/23 11:04:30;;;;;;;7.88;3.13;;;;;;;13.92;80.76;100399.44;4995910;28;20105;-75
2023/04/23 11:07:16;;;;;;;6.15;2.83;;;;;;;13.92;81.25;100393.31;4994723;28;20034;-76
2023/04/23 11:09:44;;;;;;;8.68;2.58;;;;;;;13.92;81.54;100388.91;4995936;28;20253;-76
2023/04/23 11:12:31;;;;;;;9.80;2.10;;;;;;;13.92;79.56;100395.97;4995189;28;20030;-75
2023/04/23 11:15:00;;;;;;;7.03;2.03;;;;;;;13.91;79.47;100392.47;4995250;28;20053;-76
2023/04/23 11:17:31;;;;;;;4.78;1.40;;;;;;;13.90;78.51;100390.78;4997711;28;20058;-76